Time;durP1;ratioP1;P1;durP2;ratioP2;P2;SDS_P1;SDS_P2;PMS_P1;PMS_P2;Temp;Humidity;BMP_temperature;BMP_pressure;BME280_temperature;BME280_humidity;BME280_pressure;Samples;Min_cycle;Max_cycle;Signal;HPM_P1;HPM_P2
2023/04/04 00:02:09;;;;;;;0.40;0.40;;;;;;;9.37;100.00;95753.78;5023709;28;20076;-62
2023/04/04 00:04:36;;;;;;;0.50;0.50;;;;;;;9.69;100.00;95803.56;5023570;28;20068;-62
2023/04/04 00:07:03;;;;;;;0.40;0.40;;;;;;;9.80;100.00;95796.81;5014837;28;20136;-63
2023/04/04 00:09:29;;;;;;;0.40;0.40;;;;;;;9.67;100.00;95772.72;5004164;28;20643;-63
2023/04/04 00:11:56;;;;;;;0.40;0.40;;;;;;;9.75;100.00;95783.41;5018909;28;20516;-63
2023/04/04 00:14:23;;;;;;;0.50;0.50;;;;;;;9.68;100.00;95786.16;5005873;28;20046;-62
2023/04/04 00:16:50;;;;;;;0.40;0.40;;;;;;;9.19;100.00;95708.75;5008051;28;20077;-62
2023/04/04 00:19:17;;;;;;;0.40;0.40;;;;;;;9.76;100.00;95793.28;5007327;28;20141;-63
2023/04/04 00:21:44;;;;;;;0.50;0.50;;;;;;;9.87;100.00;95799.59;5007664;28;20484;-62
2023/04/04 00:24:11;;;;;;;0.50;0.50;;;;;;;9.80;100.00;95805.13;5022253;28;20054;-62
2023/04/04 00:26:38;;;;;;;0.47;0.47;;;;;;;9.46;100.00;95762.47;5007584;28;20089;-63
2023/04/04 00:29:04;;;;;;;0.50;0.50;;;;;;;9.84;100.00;95814.22;5007510;28;20060;-62
2023/04/04 00:31:31;;;;;;;0.45;0.45;;;;;;;9.89;100.00;95813.81;5007751;28;20054;-62
2023/04/04 00:33:58;;;;;;;0.40;0.40;;;;;;;9.98;100.00;95810.63;5022251;28;20065;-63
2023/04/04 00:36:24;;;;;;;0.50;0.50;;;;;;;10.12;100.00;95805.91;5007210;28;20054;-62
2023/04/04 00:38:51;;;;;;;0.50;0.50;;;;;;;10.16;100.00;95805.91;5022132;28;20137;-63
2023/04/04 00:41:18;;;;;;;0.50;0.50;;;;;;;10.22;100.00;95794.06;5007234;28;20061;-62
2023/04/04 00:43:45;;;;;;;0.50;0.50;;;;;;;10.23;100.00;95773.47;5007266;28;20080;-63
2023/04/04 00:46:13;;;;;;;0.50;0.50;;;;;;;10.41;100.00;95801.13;5007159;28;20061;-63
2023/04/04 00:48:41;;;;;;;0.40;0.40;;;;;;;10.17;100.00;95786.16;5007211;28;20065;-63
2023/04/04 00:51:08;;;;;;;0.40;0.40;;;;;;;10.02;100.00;95740.28;5007168;28;20066;-63
2023/04/04 00:53:36;;;;;;;0.40;0.40;;;;;;;9.99;100.00;95774.28;5007096;28;20119;-63
2023/04/04 00:56:03;;;;;;;0.50;0.50;;;;;;;10.10;100.00;95775.09;5007018;28;20066;-63
2023/04/04 00:58:30;;;;;;;0.40;0.40;;;;;;;10.23;100.00;95767.94;5006315;28;20547;-62
2023/04/04 01:00:59;;;;;;;0.50;0.50;;;;;;;10.08;100.00;95760.09;5007067;28;20605;-62
2023/04/04 01:03:26;;;;;;;0.40;0.40;;;;;;;10.13;100.00;95768.75;5010330;28;20052;-62
2023/04/04 01:05:54;;;;;;;0.50;0.50;;;;;;;10.22;100.00;95766.38;5025176;28;20107;-62
2023/04/04 01:08:25;;;;;;;0.50;0.50;;;;;;;10.31;100.00;95758.44;5026408;28;20068;-63
2023/04/04 01:10:52;;;;;;;0.50;0.50;;;;;;;9.88;100.00;95696.06;5025278;28;20471;-62
2023/04/04 01:13:19;;;;;;;0.50;0.50;;;;;;;10.07;100.00;95717.78;5026353;28;20060;-62
2023/04/04 01:15:46;;;;;;;0.50;0.50;;;;;;;10.31;100.00;95725.22;5026270;28;20053;-63
2023/04/04 01:18:17;;;;;;;0.50;0.50;;;;;;;10.27;100.00;95751.34;5025383;28;20053;-63
2023/04/04 01:20:56;;;;;;;0.45;0.45;;;;;;;10.33;100.00;95750.53;5026272;28;20496;-62
2023/04/04 01:23:33;;;;;;;0.40;0.40;;;;;;;10.23;100.00;95745.00;5026083;28;20057;-62
2023/04/04 01:26:04;;;;;;;0.50;0.50;;;;;;;10.29;100.00;95749.75;5025802;28;20049;-62
2023/04/04 01:28:31;;;;;;;0.50;0.50;;;;;;;9.96;100.00;95703.16;5026020;28;20115;-62
2023/04/04 01:31:00;;;;;;;0.50;0.50;;;;;;;10.25;100.00;95737.91;5026163;28;20058;-62
2023/04/04 01:33:35;;;;;;;0.47;0.47;;;;;;;10.35;100.00;95731.53;5025738;28;20065;-62
2023/04/04 01:36:17;;;;;;;0.50;0.50;;;;;;;9.97;100.00;95737.97;5025913;28;20180;-61
2023/04/04 01:38:50;;;;;;;0.50;0.50;;;;;;;10.17;100.00;95741.88;5025805;28;20057;-63
2023/04/04 01:41:19;;;;;;;0.50;0.50;;;;;;;9.83;100.00;95702.00;5025441;28;20057;-62
2023/04/04 01:43:46;;;;;;;0.40;0.40;;;;;;;9.75;100.00;95741.94;5024588;28;20091;-63
2023/04/04 01:46:16;;;;;;;0.50;0.50;;;;;;;9.58;100.00;95692.19;5025959;28;20052;-62
2023/04/04 01:48:44;;;;;;;0.50;0.50;;;;;;;10.02;100.00;95729.22;5026193;28;20486;-61
2023/04/04 01:51:11;;;;;;;0.50;0.50;;;;;;;8.19;100.00;95465.41;5025819;28;20081;-62
2023/04/04 01:53:38;;;;;;;0.50;0.50;;;;;;;10.01;100.00;95722.13;5025707;28;20087;-62
2023/04/04 01:56:04;;;;;;;0.50;0.50;;;;;;;10.27;100.00;95735.53;5025698;28;20096;-61
2023/04/04 01:58:31;;;;;;;0.50;0.50;;;;;;;10.04;100.00;95704.72;5025576;28;20590;-61
2023/04/04 02:00:58;;;;;;;0.40;0.40;;;;;;;10.27;100.00;95735.53;5026214;28;20061;-62
2023/04/04 02:03:24;;;;;;;0.50;0.50;;;;;;;10.39;100.00;95726.78;5025897;28;20057;-62
2023/04/04 02:05:51;;;;;;;0.40;0.40;;;;;;;10.39;100.00;95732.31;5024020;28;20462;-62
2023/04/04 02:08:18;;;;;;;0.50;0.50;;;;;;;10.43;100.00;95724.00;5025332;28;20053;-62
2023/04/04 02:10:44;;;;;;;0.50;0.50;;;;;;;10.34;100.00;95723.63;5024005;28;20049;-62
2023/04/04 02:13:11;;;;;;;0.50;0.50;;;;;;;10.03;100.00;95658.91;5025284;28;20045;-61
2023/04/04 02:15:38;;;;;;;0.50;0.50;;;;;;;10.34;100.00;95718.91;5025209;28;20302;-63
2023/04/04 02:18:04;;;;;;;0.50;0.50;;;;;;;9.92;100.00;95660.91;5024006;28;20049;-62
2023/04/04 02:20:31;;;;;;;0.40;0.40;;;;;;;10.01;100.00;95711.06;5025102;28;20069;-61
2023/04/04 02:22:58;;;;;;;0.50;0.50;;;;;;;9.81;100.00;95635.25;5025391;28;20162;-62
2023/04/04 02:25:25;;;;;;;0.40;0.40;;;;;;;7.88;100.00;95362.19;5023733;28;20136;-62
2023/04/04 02:27:51;;;;;;;0.50;0.50;;;;;;;10.20;100.00;95707.88;5024931;28;20045;-62
2023/04/04 02:30:18;;;;;;;0.50;0.50;;;;;;;10.02;100.00;95701.56;5023675;28;20085;-61
2023/04/04 02:32:46;;;;;;;0.40;0.40;;;;;;;10.07;100.00;95698.44;5025087;28;20261;-62
2023/04/04 02:35:12;;;;;;;0.50;0.50;;;;;;;9.49;100.00;95623.47;5024917;28;20060;-62
2023/04/04 02:37:39;;;;;;;0.50;0.50;;;;;;;10.11;100.00;95707.50;5024412;28;20049;-62
2023/04/04 02:40:06;;;;;;;0.45;0.45;;;;;;;10.08;100.00;95705.56;5024585;28;20478;-62
2023/04/04 02:42:33;;;;;;;0.43;0.43;;;;;;;10.06;100.00;95702.34;5025018;28;20490;-61
2023/04/04 02:45:00;;;;;;;0.50;0.50;;;;;;;9.85;100.00;95671.19;5024195;28;20497;-62
2023/04/04 02:47:27;;;;;;;0.50;0.50;;;;;;;10.02;100.00;95707.09;5024725;28;20421;-62
2023/04/04 02:49:54;;;;;;;0.50;0.50;;;;;;;10.03;100.00;95707.91;5024928;28;20123;-62
2023/04/04 02:52:21;;;;;;;0.50;0.50;;;;;;;9.93;100.00;95690.13;5024446;28;20123;-61
2023/04/04 02:54:48;;;;;;;0.50;0.50;;;;;;;9.90;100.00;95699.22;5024488;28;20053;-62
2023/04/04 02:57:15;;;;;;;0.50;0.50;;;;;;;9.97;100.00;95709.50;5024622;28;20057;-62
2023/04/04 02:59:41;;;;;;;0.50;0.50;;;;;;;10.02;100.00;95709.09;5024316;28;20057;-62
2023/04/04 03:02:08;;;;;;;0.40;0.40;;;;;;;9.93;100.00;95698.44;5022954;28;20239;-63
2023/04/04 03:04:35;;;;;;;0.50;0.50;;;;;;;9.63;100.00;95659.38;5024571;28;20049;-62
2023/04/04 03:07:02;;;;;;;0.40;0.40;;;;;;;9.86;100.00;95681.88;5039767;28;20060;-62
2023/04/04 03:09:29;;;;;;;0.50;0.50;;;;;;;9.97;100.00;95699.22;5024180;28;20515;-63
2023/04/04 03:11:56;;;;;;;0.50;0.50;;;;;;;9.98;100.00;95692.50;5024813;28;20084;-62
2023/04/04 03:14:22;;;;;;;0.50;0.50;;;;;;;10.01;100.00;95688.13;5024059;28;20057;-63
2023/04/04 03:16:51;;;;;;;0.50;0.50;;;;;;;9.96;100.00;95686.56;5024463;28;20131;-62
2023/04/04 03:19:18;;;;;;;0.40;0.40;;;;;;;9.94;100.00;95693.69;5023088;28;20128;-63
2023/04/04 03:21:45;;;;;;;0.43;0.43;;;;;;;9.89;100.00;95691.34;5024432;28;20060;-63
2023/04/04 03:24:12;;;;;;;0.40;0.40;;;;;;;9.92;100.00;95694.09;5024766;28;20680;-62
2023/04/04 03:26:38;;;;;;;0.40;0.40;;;;;;;9.94;100.00;95699.22;5024691;28;20483;-62
2023/04/04 03:29:05;;;;;;;0.50;0.50;;;;;;;8.69;100.00;95480.78;5024289;28;20053;-63
2023/04/04 03:31:32;;;;;;;0.40;0.40;;;;;;;10.01;100.00;95699.19;5024356;28;20049;-63
2023/04/04 03:33:59;;;;;;;0.50;0.50;;;;;;;10.05;100.00;95703.53;5022600;28;20057;-63
2023/04/04 03:36:26;;;;;;;0.50;0.50;;;;;;;9.98;100.00;95686.97;5023884;28;20500;-62
2023/04/04 03:38:52;;;;;;;0.50;0.50;;;;;;;9.79;100.00;95654.22;5022022;28;20107;-63
2023/04/04 03:41:19;;;;;;;0.50;0.50;;;;;;;10.14;100.00;95695.66;5019276;28;20212;-63
2023/04/04 03:43:47;;;;;;;0.40;0.40;;;;;;;9.52;100.00;95633.75;5004108;28;20588;-62
2023/04/04 03:46:13;;;;;;;0.50;0.50;;;;;;;9.90;100.00;95641.16;5019121;28;20061;-63
2023/04/04 03:48:40;;;;;;;0.50;0.50;;;;;;;10.30;100.00;95696.00;5022244;28;20107;-63
2023/04/04 03:51:07;;;;;;;0.50;0.50;;;;;;;10.09;100.00;95676.69;5023300;28;20050;-63
2023/04/04 03:53:35;;;;;;;0.40;0.40;;;;;;;10.07;100.00;95686.56;5008343;28;20073;-62
2023/04/04 03:56:02;;;;;;;0.50;0.50;;;;;;;10.08;100.00;95683.41;5008196;28;20054;-62
2023/04/04 03:58:29;;;;;;;0.47;0.47;;;;;;;10.05;100.00;95700.00;5022666;28;20057;-64
2023/04/04 04:00:56;;;;;;;0.50;0.50;;;;;;;10.19;100.00;95689.72;5023198;28;20077;-63
2023/04/04 04:03:23;;;;;;;0.50;0.50;;;;;;;10.15;100.00;95677.84;5008147;28;20058;-63
2023/04/04 04:05:49;;;;;;;0.50;0.50;;;;;;;10.23;100.00;95690.47;5026576;28;20487;-63
2023/04/04 04:08:16;;;;;;;0.50;0.50;;;;;;;9.77;100.00;95623.41;5013129;28;20058;-62
2023/04/04 04:10:43;;;;;;;0.50;0.50;;;;;;;10.25;100.00;95693.63;5008108;28;20045;-62
2023/04/04 04:13:09;;;;;;;0.50;0.50;;;;;;;10.11;100.00;95688.16;5007794;28;20085;-61
2023/04/04 04:15:36;;;;;;;0.50;0.50;;;;;;;9.54;100.00;95620.31;5007887;28;20054;-63
2023/04/04 04:18:03;;;;;;;0.50;0.50;;;;;;;10.04;100.00;95693.66;5022618;28;20465;-62
2023/04/04 04:20:30;;;;;;;0.50;0.50;;;;;;;9.92;100.00;95685.81;5006169;28;20050;-63
2023/04/04 04:22:56;;;;;;;0.40;0.40;;;;;;;9.38;100.00;95605.34;5006818;28;20163;-63
2023/04/04 04:25:23;;;;;;;0.40;0.40;;;;;;;9.81;100.00;95695.31;5006717;28;20061;-63
2023/04/04 04:27:50;;;;;;;0.40;0.40;;;;;;;9.89;100.00;95691.34;5006577;28;20062;-63
2023/04/04 04:30:16;;;;;;;0.40;0.40;;;;;;;9.46;100.00;95629.81;5006432;28;20085;-63
2023/04/04 04:32:43;;;;;;;0.50;0.50;;;;;;;9.89;100.00;95686.59;5021079;28;21014;-63
2023/04/04 04:35:09;;;;;;;0.50;0.50;;;;;;;9.85;100.00;95691.34;5007284;28;20116;-63
2023/04/04 04:37:36;;;;;;;0.50;0.50;;;;;;;9.88;100.00;95690.53;5007291;28;20395;-63
2023/04/04 04:40:03;;;;;;;0.50;0.50;;;;;;;9.85;100.00;95691.34;5007256;28;20124;-63
2023/04/04 04:42:30;;;;;;;0.40;0.40;;;;;;;9.87;100.00;95694.50;5007400;28;20093;-63
2023/04/04 04:44:56;;;;;;;0.40;0.40;;;;;;;9.79;100.00;95698.47;5007326;28;20049;-64
2023/04/04 04:47:23;;;;;;;0.40;0.40;;;;;;;9.93;100.00;95703.97;5007707;28;20050;-64
2023/04/04 04:49:50;;;;;;;0.45;0.45;;;;;;;9.96;100.00;95705.13;5007128;28;20136;-64
2023/04/04 04:52:18;;;;;;;0.40;0.40;;;;;;;9.60;100.00;95635.31;5021930;28;20054;-63
2023/04/04 04:54:44;;;;;;;0.50;0.50;;;;;;;10.05;100.00;95700.75;5006719;28;20065;-64
2023/04/04 04:57:11;;;;;;;0.40;0.40;;;;;;;10.03;100.00;95699.59;5021906;28;20324;-64
2023/04/04 04:59:40;;;;;;;0.40;0.40;;;;;;;9.94;100.00;95669.56;5020864;28;20050;-64
2023/04/04 05:02:07;;;;;;;0.50;0.50;;;;;;;10.10;100.00;95703.16;5007085;28;20088;-64
2023/04/04 05:04:33;;;;;;;0.55;0.55;;;;;;;10.04;100.00;95693.66;5015373;28;20132;-66
2023/04/04 05:07:00;;;;;;;0.50;0.50;;;;;;;10.07;100.00;95698.44;5025325;28;20137;-64
2023/04/04 05:09:27;;;;;;;0.50;0.50;;;;;;;9.70;100.00;95606.06;5024929;28;20053;-64
2023/04/04 05:11:54;;;;;;;0.50;0.50;;;;;;;10.17;100.00;95681.00;5025194;28;20141;-64
2023/04/04 05:14:20;;;;;;;0.40;0.40;;;;;;;9.99;100.00;95652.56;5026408;28;20590;-64
2023/04/04 05:16:47;;;;;;;0.50;0.50;;;;;;;10.27;100.00;95684.94;5026769;28;20068;-65
2023/04/04 05:19:15;;;;;;;0.40;0.40;;;;;;;10.14;100.00;95681.81;5026371;28;20057;-65
2023/04/04 05:21:42;;;;;;;0.50;0.50;;;;;;;9.94;100.00;95628.09;5026623;28;20081;-63
2023/04/04 05:24:08;;;;;;;0.50;0.50;;;;;;;10.18;100.00;95682.56;5024549;28;20049;-65
2023/04/04 05:26:35;;;;;;;0.50;0.50;;;;;;;10.20;100.00;95676.63;5026475;28;20053;-65
2023/04/04 05:29:02;;;;;;;0.50;0.50;;;;;;;9.84;100.00;95617.88;5026033;28;20146;-64
2023/04/04 05:31:28;;;;;;;0.45;0.45;;;;;;;10.23;100.00;95673.88;5009707;28;20065;-65
2023/04/04 05:33:55;;;;;;;0.50;0.50;;;;;;;10.24;100.00;95677.44;5025239;28;20063;-65
2023/04/04 05:36:22;;;;;;;0.50;0.50;;;;;;;10.32;100.00;95676.22;5022834;28;20049;-65
2023/04/04 05:38:49;;;;;;;0.40;0.40;;;;;;;9.92;100.00;95630.50;5024285;28;20550;-64
2023/04/04 05:41:15;;;;;;;0.40;0.40;;;;;;;9.81;100.00;95598.53;5023587;28;20057;-65
2023/04/04 05:43:42;;;;;;;0.50;0.50;;;;;;;9.90;100.00;95605.19;5025042;28;20588;-65
2023/04/04 05:46:08;;;;;;;0.50;0.50;;;;;;;10.24;100.00;95675.44;5023343;28;20068;-65
2023/04/04 05:48:35;;;;;;;0.50;0.50;;;;;;;10.36;100.00;95690.81;5024968;28;20111;-65
2023/04/04 05:51:02;;;;;;;0.50;0.50;;;;;;;10.45;100.00;95688.41;5023697;28;20553;-65
2023/04/04 05:53:29;;;;;;;0.43;0.43;;;;;;;10.19;100.00;95648.19;5023726;28;20206;-65
2023/04/04 05:55:57;;;;;;;0.50;0.50;;;;;;;10.55;100.00;95685.59;5023663;28;20049;-64
2023/04/04 05:58:25;;;;;;;0.50;0.50;;;;;;;10.53;100.00;95693.50;5023585;28;20061;-65
2023/04/04 06:00:52;;;;;;;0.50;0.50;;;;;;;8.05;100.00;95286.16;5023628;28;20065;-66
2023/04/04 06:03:18;;;;;;;0.50;0.50;;;;;;;10.55;100.00;95691.13;5020352;28;20490;-65
2023/04/04 06:05:51;;;;;;;0.50;0.50;;;;;;;10.34;100.00;95669.06;5019673;28;20149;-66
2023/04/04 06:08:18;;;;;;;0.50;0.50;;;;;;;9.01;100.00;95526.47;5025668;28;20049;-64
2023/04/04 06:10:45;;;;;;;0.40;0.40;;;;;;;10.68;100.00;95683.16;5024811;28;20092;-65
2023/04/04 06:13:12;;;;;;;0.50;0.50;;;;;;;10.68;100.00;95688.69;5025483;28;20522;-66
2023/04/04 06:15:39;;;;;;;0.50;0.50;;;;;;;10.59;100.00;95689.13;5023645;28;20061;-65
2023/04/04 06:18:05;;;;;;;0.47;0.47;;;;;;;10.61;100.00;95697.81;5025073;28;20061;-65
2023/04/04 06:20:32;;;;;;;0.50;0.50;;;;;;;10.57;100.00;95699.03;5024904;28;20053;-64
2023/04/04 06:23:03;;;;;;;0.50;0.50;;;;;;;10.58;100.00;95695.88;5023847;28;20060;-70
2023/04/04 06:25:30;;;;;;;0.43;0.43;;;;;;;10.73;100.00;95694.59;5023745;28;20080;-64
2023/04/04 06:27:58;;;;;;;0.50;0.50;;;;;;;10.75;100.00;95698.94;5025247;28;20487;-66
2023/04/04 06:30:24;;;;;;;0.50;0.50;;;;;;;10.83;100.00;95695.72;5022935;28;20103;-64
2023/04/04 06:32:51;;;;;;;0.50;0.50;;;;;;;10.55;100.00;95641.31;5024663;28;20064;-65
2023/04/04 06:35:20;;;;;;;0.50;0.50;;;;;;;11.01;100.00;95684.53;5024877;28;20409;-63
2023/04/04 06:37:47;;;;;;;0.50;0.50;;;;;;;11.15;100.00;95689.97;5024924;28;20528;-63
2023/04/04 06:40:14;;;;;;;0.50;0.50;;;;;;;11.12;100.00;95697.13;5022237;28;20089;-63
2023/04/04 06:42:49;;;;;;;0.50;0.50;;;;;;;11.09;100.00;95691.59;5023019;28;20057;-63
2023/04/04 06:45:16;;;;;;;0.50;0.50;;;;;;;11.16;100.00;95694.34;5022312;28;20068;-62
2023/04/04 06:47:43;;;;;;;0.50;0.50;;;;;;;10.77;100.00;95646.69;5022120;28;20053;-62
2023/04/04 06:50:10;;;;;;;0.50;0.50;;;;;;;11.19;100.00;95679.66;5023054;28;20140;-63
2023/04/04 06:52:37;;;;;;;0.50;0.50;;;;;;;11.12;100.00;95676.94;5023806;28;20474;-63
2023/04/04 06:55:06;;;;;;;0.50;0.50;;;;;;;10.90;100.00;95647.81;5021366;28;20049;-63
2023/04/04 06:57:32;;;;;;;0.50;0.50;;;;;;;10.88;100.00;95631.59;5021192;28;20061;-64
2023/04/04 06:59:59;;;;;;;0.50;0.50;;;;;;;11.30;100.00;95685.91;5022224;28;20053;-63
2023/04/04 07:02:26;;;;;;;0.50;0.50;;;;;;;11.28;100.00;95688.28;5021171;28;20080;-63
2023/04/04 07:04:53;;;;;;;0.52;0.52;;;;;;;11.21;100.00;95682.78;5022358;28;20041;-62
2023/04/04 07:07:19;;;;;;;0.50;0.50;;;;;;;11.27;100.00;95692.28;5022865;28;20057;-62
2023/04/04 07:09:46;;;;;;;0.50;0.50;;;;;;;11.23;100.00;95683.19;5020768;28;20053;-62
2023/04/04 07:12:12;;;;;;;0.50;0.50;;;;;;;10.70;100.00;95609.53;5022690;28;20455;-64
2023/04/04 07:14:39;;;;;;;0.50;0.50;;;;;;;11.03;100.00;95690.47;5023889;28;20069;-64
2023/04/04 07:17:06;;;;;;;0.50;0.50;;;;;;;10.95;100.00;95697.25;5024528;28;20053;-63
2023/04/04 07:19:47;;;;;;;0.50;0.50;;;;;;;10.43;100.00;95608.53;5024226;28;20049;-63
2023/04/04 07:22:13;;;;;;;0.50;0.50;;;;;;;11.03;100.00;95698.78;5024190;28;20076;-62
2023/04/04 07:24:41;;;;;;;0.43;0.43;;;;;;;11.09;100.00;95703.47;5023954;28;20147;-63
2023/04/04 07:27:07;;;;;;;0.50;0.50;;;;;;;10.84;100.00;95679.91;5024444;28;20570;-63
2023/04/04 07:29:34;;;;;;;0.50;0.50;;;;;;;10.99;100.00;95686.91;5024046;28;20131;-63
2023/04/04 07:32:01;;;;;;;0.50;0.50;;;;;;;11.03;100.00;95702.34;5024560;28;20396;-64
2023/04/04 07:34:29;;;;;;;0.50;0.50;;;;;;;11.19;100.00;95712.91;5022439;28;20058;-64
2023/04/04 07:36:56;;;;;;;0.50;0.50;;;;;;;10.96;100.00;95696.03;5024345;28;20061;-64
2023/04/04 07:39:22;;;;;;;0.50;0.50;;;;;;;10.86;100.00;95689.38;5022808;28;20054;-63
2023/04/04 07:41:49;;;;;;;0.50;0.50;;;;;;;10.54;100.00;95620.31;5024459;28;20577;-61
2023/04/04 07:44:16;;;;;;;0.50;0.50;;;;;;;11.07;100.00;95713.38;5024122;28;20503;-62
2023/04/04 07:46:42;;;;;;;0.55;0.55;;;;;;;11.10;100.00;95709.78;5022601;28;20061;-63
2023/04/04 07:49:11;;;;;;;0.50;0.50;;;;;;;11.18;100.00;95711.31;5024026;28;20231;-63
2023/04/04 07:51:38;;;;;;;0.50;0.50;;;;;;;11.22;100.00;95701.03;5019848;28;20163;-63
2023/04/04 07:54:05;;;;;;;0.47;0.47;;;;;;;11.18;100.00;95705.78;5004055;28;20060;-64
2023/04/04 07:56:32;;;;;;;0.50;0.50;;;;;;;11.14;100.00;95696.72;5018742;28;20128;-65
2023/04/04 07:58:58;;;;;;;0.50;0.50;;;;;;;11.31;100.00;95704.09;5003633;28;20089;-64
2023/04/04 08:01:25;;;;;;;0.50;0.50;;;;;;;10.84;100.00;95672.38;5004229;28;20435;-64
2023/04/04 08:03:53;;;;;;;0.50;0.50;;;;;;;10.88;100.00;95708.34;5004183;28;20054;-64
2023/04/04 08:06:20;;;;;;;0.40;0.40;;;;;;;10.57;100.00;95647.19;5037010;28;20119;-63
2023/04/04 08:08:47;;;;;;;0.50;0.50;;;;;;;10.81;100.00;95705.63;5022261;28;20482;-62
2023/04/04 08:11:13;;;;;;;0.50;0.50;;;;;;;10.91;100.00;95702.03;5003158;28;20084;-62
2023/04/04 08:13:40;;;;;;;0.50;0.50;;;;;;;11.10;100.00;95701.47;5007367;28;20136;-64
2023/04/04 08:16:07;;;;;;;0.50;0.50;;;;;;;11.20;100.00;95703.41;5023184;28;20492;-63
2023/04/04 08:18:34;;;;;;;0.40;0.40;;;;;;;11.13;100.00;95692.38;5023464;28;20053;-64
2023/04/04 08:21:00;;;;;;;0.50;0.50;;;;;;;11.30;100.00;95694.22;5038854;28;20413;-63
2023/04/04 08:23:28;;;;;;;0.50;0.50;;;;;;;11.32;100.00;95694.59;5023338;28;20504;-64
2023/04/04 08:25:56;;;;;;;0.50;0.50;;;;;;;11.39;100.00;95694.53;5022276;28;20057;-65
2023/04/04 08:28:23;;;;;;;0.50;0.50;;;;;;;11.51;100.00;95697.59;5023609;28;20475;-64
2023/04/04 08:30:54;;;;;;;0.50;0.50;;;;;;;11.15;100.00;95646.44;5038933;28;20085;-64
2023/04/04 08:33:23;;;;;;;0.50;0.50;;;;;;;11.39;100.00;95691.78;5023584;28;20089;-64
2023/04/04 08:35:59;;;;;;;0.50;0.50;;;;;;;11.37;100.00;95663.66;5026530;28;20321;-63
2023/04/04 08:38:26;;;;;;;0.50;0.50;;;;;;;11.61;100.00;95701.50;5027025;28;20060;-63
2023/04/04 08:40:53;;;;;;;0.50;0.50;;;;;;;11.44;100.00;95694.13;5026816;28;20105;-64
2023/04/04 08:43:21;;;;;;;0.50;0.50;;;;;;;11.29;100.00;95700.94;5025576;28;20715;-65
2023/04/04 08:45:49;;;;;;;0.50;0.50;;;;;;;11.48;100.00;95703.19;5027223;28;20053;-64
2023/04/04 08:48:16;;;;;;;0.50;0.50;;;;;;;11.67;100.00;95705.44;5025438;28;20570;-64
2023/04/04 08:50:43;;;;;;;0.50;0.50;;;;;;;11.78;100.00;95706.91;5026831;28;20045;-64
2023/04/04 08:53:10;;;;;;;0.50;0.50;;;;;;;11.99;100.00;95711.47;5025381;28;20100;-64
2023/04/04 08:55:37;;;;;;;0.40;0.40;;;;;;;11.68;100.00;95657.09;4678448;28;10001761;-64
2023/04/04 08:58:04;;;;;;;0.50;0.50;;;;;;;11.45;100.00;95645.78;5026529;28;20057;-64
2023/04/04 09:00:31;;;;;;;0.50;0.50;;;;;;;10.87;100.00;95688.19;5026811;28;20053;-65
2023/04/04 09:03:13;;;;;;;0.50;0.50;;;;;;;11.06;100.00;95718.16;5041964;28;20084;-64
2023/04/04 09:05:43;;;;;;;0.50;0.50;;;;;;;10.61;100.00;95711.66;5026813;28;20054;-65
2023/04/04 09:08:11;;;;;;;0.43;0.43;;;;;;;10.63;100.00;95717.59;5026458;28;20566;-63
2023/04/04 09:10:42;;;;;;;0.50;0.50;;;;;;;10.39;100.00;95715.72;5026505;28;20114;-65
2023/04/04 09:13:09;;;;;;;0.50;0.50;;;;;;;10.64;100.00;95721.94;5026784;28;20053;-65
2023/04/04 09:15:46;;;;;;;0.40;0.40;;;;;;;10.76;100.00;95722.66;5026418;28;20053;-65
2023/04/04 09:18:13;;;;;;;0.50;0.50;;;;;;;10.98;100.00;95726.91;5026569;28;20119;-65
2023/04/04 09:20:47;;;;;;;0.47;0.47;;;;;;;10.77;100.00;95685.47;5026422;28;20132;-66
2023/04/04 09:23:19;;;;;;;0.50;0.50;;;;;;;10.78;100.00;95643.50;5026854;28;20539;-65
2023/04/04 09:25:54;;;;;;;0.45;0.45;;;;;;;11.42;100.00;95727.00;5026748;28;20045;-65
2023/04/04 09:28:23;;;;;;;0.50;0.50;;;;;;;11.41;100.00;95725.44;5026462;28;20581;-65
2023/04/04 09:30:51;;;;;;;0.50;0.50;;;;;;;11.28;100.00;95693.84;5015979;28;20058;-65
2023/04/04 09:33:23;;;;;;;0.40;0.40;;;;;;;11.59;100.00;95731.59;5006459;28;20722;-65
2023/04/04 09:35:53;;;;;;;0.50;0.50;;;;;;;11.66;100.00;95732.38;5006419;28;20054;-65
2023/04/04 09:38:25;;;;;;;0.50;0.50;;;;;;;11.74;100.00;95730.34;5006821;28;20708;-65
2023/04/04 09:40:54;;;;;;;0.50;0.50;;;;;;;11.86;100.00;95740.91;5006075;28;20053;-65
2023/04/04 09:43:23;;;;;;;0.50;0.50;;;;;;;11.89;100.00;95735.34;5006288;28;20062;-65
2023/04/04 09:45:50;;;;;;;0.50;0.50;;;;;;;11.98;100.00;95732.88;5020745;28;20493;-65
2023/04/04 09:48:31;;;;;;;0.50;0.50;;;;;;;11.96;100.00;95723.41;5021100;28;20057;-64
2023/04/04 09:50:58;;;;;;;0.40;0.40;;;;;;;11.52;100.00;95654.03;5005774;28;20072;-64
2023/04/04 09:53:26;;;;;;;0.50;0.50;;;;;;;11.96;100.00;95740.84;5005481;28;20081;-63
2023/04/04 09:55:54;;;;;;;0.50;0.50;;;;;;;11.90;100.00;95702.84;5020745;28;20046;-63
2023/04/04 09:58:26;;;;;;;0.50;0.50;;;;;;;12.41;100.00;95738.78;5006241;28;20057;-63
2023/04/04 10:00:56;;;;;;;0.60;0.60;;;;;;;12.29;100.00;95692.13;5020639;28;20046;-64
2023/04/04 10:03:23;;;;;;;0.60;0.60;;;;;;;12.91;100.00;95733.41;5005998;28;20073;-64
2023/04/04 10:05:59;;;;;;;0.60;0.60;;;;;;;13.05;100.00;95739.59;5018819;28;20088;-65
2023/04/04 10:08:27;;;;;;;0.50;0.50;;;;;;;12.57;100.00;95669.53;5025900;28;20111;-64
2023/04/04 10:11:00;;;;;;;0.60;0.60;;;;;;;12.94;100.00;95738.94;5024059;28;20702;-64
2023/04/04 10:13:31;;;;;;;0.50;0.50;;;;;;;12.54;100.00;95734.25;5023626;28;20501;-64
2023/04/04 10:15:59;;;;;;;0.50;0.50;;;;;;;12.82;100.00;95731.13;5025252;28;20049;-62
2023/04/04 10:18:28;;;;;;;0.60;0.60;;;;;;;12.18;100.00;95652.59;5025161;28;20312;-62
2023/04/04 10:20:56;;;;;;;0.50;0.50;;;;;;;12.08;100.00;95670.13;5024866;28;20475;-62
2023/04/04 10:23:41;;;;;;;0.50;0.50;;;;;;;12.10;100.00;95728.81;5023426;28;20060;-62
2023/04/04 10:26:08;;;;;;;0.50;0.50;;;;;;;11.94;100.00;95731.34;5017336;28;20045;-62
2023/04/04 10:28:35;;;;;;;0.50;0.50;;;;;;;12.18;100.00;95731.09;5024281;28;20057;-62
2023/04/04 10:31:13;;;;;;;0.60;0.60;;;;;;;12.35;100.00;95740.44;5014982;28;20107;-61
2023/04/04 10:34:14;;;;;;;0.50;0.50;;;;;;;12.23;100.00;95727.09;5023346;28;20053;-62
2023/04/04 10:36:47;;;;;;;0.50;0.50;;;;;;;11.84;100.00;95727.47;5023467;28;20115;-62
2023/04/04 10:39:25;;;;;;;0.50;0.50;;;;;;;12.17;100.00;95728.75;5023191;28;20053;-62
2023/04/04 10:41:54;;;;;;;0.50;0.50;;;;;;;11.95;100.00;95688.50;5023224;28;20374;-63
2023/04/04 10:44:32;;;;;;;0.50;0.50;;;;;;;11.82;100.00;95724.31;5023347;28;20057;-61
2023/04/04 10:47:21;;;;;;;0.50;0.50;;;;;;;12.09;100.00;95716.13;5038065;28;20049;-61
2023/04/04 10:49:50;;;;;;;0.50;0.50;;;;;;;12.73;100.00;95719.75;5023116;28;20049;-61
2023/04/04 10:52:26;;;;;;;0.60;0.60;;;;;;;12.73;100.00;95728.06;5022443;28;20504;-62
2023/04/04 10:54:57;;;;;;;0.50;0.50;;;;;;;12.96;100.00;95725.38;5022488;28;20504;-61
2023/04/04 10:57:27;;;;;;;0.60;0.60;;;;;;;13.31;100.00;95705.44;5037175;28;20058;-62
2023/04/04 11:00:07;;;;;;;0.57;0.57;;;;;;;12.90;100.00;95699.25;5022531;28;20067;-63
2023/04/04 11:02:46;;;;;;;0.50;0.50;;;;;;;13.16;100.00;95726.34;5022887;28;20045;-63
2023/04/04 11:05:47;;;;;;;0.50;0.50;;;;;;;13.43;100.00;95716.00;5024560;28;20060;-62
2023/04/04 11:08:20;;;;;;;0.50;0.50;;;;;;;13.41;100.00;95723.97;5024258;28;20098;-62
2023/04/04 11:10:49;;;;;;;0.50;0.50;;;;;;;13.15;100.00;95716.41;5022899;28;20057;-61
2023/04/04 11:13:17;;;;;;;0.50;0.50;;;;;;;12.66;100.00;95717.03;5024212;28;20049;-62
2023/04/04 11:16:09;;;;;;;0.50;0.50;;;;;;;12.09;100.00;95716.13;5023777;28;20545;-62
2023/04/04 11:18:44;;;;;;;0.50;0.50;;;;;;;12.01;100.00;95709.09;5022785;28;20059;-63
2023/04/04 11:21:22;;;;;;;0.60;0.60;;;;;;;11.60;100.00;95722.09;5024247;28;20084;-63
2023/04/04 11:23:59;;;;;;;0.50;0.50;;;;;;;11.82;100.00;95712.44;5022723;28;20455;-63
2023/04/04 11:26:32;;;;;;;0.50;0.50;;;;;;;11.59;100.00;95714.97;5024359;28;20119;-64
2023/04/04 11:29:03;;;;;;;0.52;0.52;;;;;;;11.93;100.00;95724.22;5024359;28;20049;-64
2023/04/04 11:31:42;;;;;;;0.50;0.50;;;;;;;11.96;100.00;95701.19;5024397;28;20053;-63
2023/04/04 11:34:13;;;;;;;0.50;0.50;;;;;;;12.63;100.00;95706.75;5024165;28;20057;-63